Time;durP1;ratioP1;P1;durP2;ratioP2;P2;SDS_P1;SDS_P2;PMS_P1;PMS_P2;Temp;Humidity;BMP_temperature;BMP_pressure;BME280_temperature;BME280_humidity;BME280_pressure;Samples;Min_cycle;Max_cycle;Signal;HPM_P1;HPM_P2
2023/06/25 00:01:03;;;;;;;7.47;4.45;;;17.30;99.90;;;;;;5033059;28;20104;-76
2023/06/25 00:03:29;;;;;;;8.38;4.82;;;17.30;99.90;;;;;;5035109;28;20481;-76
2023/06/25 00:05:55;;;;;;;9.07;5.25;;;17.30;99.90;;;;;;5036629;28;20497;-76
2023/06/25 00:08:20;;;;;;;7.97;4.70;;;17.30;99.90;;;;;;5035610;28;20052;-76
2023/06/25 00:10:46;;;;;;;8.68;5.05;;;17.30;99.90;;;;;;5035188;28;20115;-76
2023/06/25 00:13:11;;;;;;;6.95;4.70;;;17.20;99.90;;;;;;5035247;28;20041;-76
2023/06/25 00:15:37;;;;;;;7.97;5.13;;;17.20;99.90;;;;;;5035054;28;20073;-76
2023/06/25 00:18:03;;;;;;;8.27;5.50;;;17.20;99.90;;;;;;5035117;28;20041;-76
2023/06/25 00:20:29;;;;;;;9.07;6.28;;;17.20;99.90;;;;;;5036441;28;20076;-76
2023/06/25 00:22:54;;;;;;;9.05;5.53;;;17.10;99.90;;;;;;5035374;28;20077;-76
2023/06/25 00:25:20;;;;;;;9.75;5.60;;;17.10;99.90;;;;;;5036077;28;20049;-76
2023/06/25 00:27:47;;;;;;;8.70;5.40;;;17.10;99.90;;;;;;5035098;28;20046;-76
2023/06/25 00:30:16;;;;;;;7.43;5.45;;;17.00;99.90;;;;;;5034853;28;20083;-76
2023/06/25 00:32:43;;;;;;;6.82;4.65;;;17.00;99.90;;;;;;5034876;28;20045;-75
2023/06/25 00:35:10;;;;;;;8.52;5.25;;;17.00;99.90;;;;;;5034561;28;20049;-76
2023/06/25 00:37:36;;;;;;;7.60;5.13;;;17.00;99.90;;;;;;5034602;28;20436;-76
2023/06/25 00:40:04;;;;;;;10.40;5.32;;;17.10;99.90;;;;;;5036065;28;20059;-76
2023/06/25 00:42:42;;;;;;;6.88;4.57;;;17.00;99.90;;;;;;5036004;28;20048;-76
2023/06/25 00:45:09;;;;;;;7.68;4.45;;;17.10;99.90;;;;;;5036003;28;20107;-76
2023/06/25 00:47:35;;;;;;;7.45;4.80;;;17.00;99.90;;;;;;5034626;28;20136;-76
2023/06/25 00:50:02;;;;;;;7.88;5.10;;;17.00;99.90;;;;;;5034606;28;20092;-76
2023/06/25 00:52:31;;;;;;;10.00;5.05;;;17.00;99.90;;;;;;5034381;28;20041;-76
2023/06/25 00:54:57;;;;;;;9.63;5.57;;;16.90;99.90;;;;;;5035679;28;20051;-76
2023/06/25 00:57:27;;;;;;;7.30;5.30;;;16.90;99.90;;;;;;5035211;28;20048;-76
2023/06/25 00:59:53;;;;;;;8.02;5.20;;;16.90;99.90;;;;;;5034387;28;20052;-76
2023/06/25 01:02:32;;;;;;;8.60;5.30;;;16.90;99.90;;;;;;5034698;28;20049;-76
2023/06/25 01:05:03;;;;;;;10.02;5.72;;;16.90;99.90;;;;;;5034157;28;20099;-76
2023/06/25 01:07:30;;;;;;;10.10;5.57;;;17.00;99.90;;;;;;5034422;28;20060;-76
2023/06/25 01:09:56;;;;;;;8.38;5.50;;;17.00;99.90;;;;;;5034044;28;20053;-76
2023/06/25 01:12:22;;;;;;;7.97;5.78;;;16.90;99.90;;;;;;5035419;28;20115;-76
2023/06/25 01:14:50;;;;;;;10.18;6.22;;;16.90;99.90;;;;;;5033059;28;20041;-76
2023/06/25 01:17:16;;;;;;;11.60;6.15;;;16.80;99.90;;;;;;5033967;28;20080;-76
2023/06/25 01:19:42;;;;;;;11.02;6.70;;;16.90;99.90;;;;;;5034063;28;20069;-76
2023/06/25 01:22:09;;;;;;;10.73;7.05;;;16.80;99.90;;;;;;5035247;28;20552;-76
2023/06/25 01:24:35;;;;;;;15.27;8.55;;;16.90;99.90;;;;;;5035090;28;20053;-76
2023/06/25 01:27:05;;;;;;;16.73;9.05;;;16.90;99.90;;;;;;5033873;28;20053;-76
2023/06/25 01:29:34;;;;;;;15.77;8.80;;;16.90;99.90;;;;;;5034112;28;20049;-76
2023/06/25 01:31:59;;;;;;;13.40;8.82;;;16.90;99.90;;;;;;5035024;28;20052;-76
2023/06/25 01:34:27;;;;;;;12.43;8.63;;;16.90;99.90;;;;;;5040204;28;20061;-76
2023/06/25 01:36:53;;;;;;;16.25;9.85;;;16.90;99.90;;;;;;5037124;28;20103;-76
2023/06/25 01:39:19;;;;;;;13.60;9.02;;;16.90;99.90;;;;;;5036803;28;20389;-76
2023/06/25 01:41:49;;;;;;;13.85;8.57;;;16.90;99.90;;;;;;5036804;28;20046;-75
2023/06/25 01:44:29;;;;;;;13.02;8.65;;;16.90;99.90;;;;;;5037078;28;20059;-75
2023/06/25 01:46:56;;;;;;;12.90;8.00;;;16.90;99.90;;;;;;5036917;28;20091;-76
2023/06/25 01:49:23;;;;;;;13.20;8.40;;;16.90;99.90;;;;;;5036904;28;20122;-75
2023/06/25 01:51:49;;;;;;;12.57;8.82;;;16.90;99.90;;;;;;5036663;28;20056;-76
2023/06/25 01:54:15;;;;;;;15.20;9.23;;;16.80;99.90;;;;;;5036667;28;20044;-76
2023/06/25 01:56:42;;;;;;;14.43;9.07;;;16.80;99.90;;;;;;5054510;28;20123;-76
2023/06/25 01:59:07;;;;;;;13.77;8.80;;;16.80;99.90;;;;;;5036264;28;20041;-76
2023/06/25 02:01:34;;;;;;;11.85;8.15;;;16.80;99.90;;;;;;5054494;28;20045;-75
2023/06/25 02:03:59;;;;;;;12.70;8.38;;;16.80;99.90;;;;;;5054322;28;20086;-75
2023/06/25 02:06:25;;;;;;;14.52;8.80;;;16.80;99.90;;;;;;5036632;28;20049;-75
2023/06/25 02:08:51;;;;;;;16.35;9.82;;;16.80;99.90;;;;;;5054205;28;20102;-76
2023/06/25 02:11:16;;;;;;;16.50;8.73;;;16.80;99.90;;;;;;5036228;28;20435;-76
2023/06/25 02:13:42;;;;;;;13.80;9.25;;;16.80;99.90;;;;;;5054619;28;20041;-75
2023/06/25 02:16:11;;;;;;;16.23;9.35;;;16.80;99.90;;;;;;5036369;28;20124;-76
2023/06/25 02:18:37;;;;;;;15.20;9.20;;;16.80;99.90;;;;;;5036136;28;20131;-76
2023/06/25 02:21:03;;;;;;;14.60;8.20;;;16.80;99.90;;;;;;5036333;28;20128;-76
2023/06/25 02:23:28;;;;;;;12.48;7.95;;;16.80;99.90;;;;;;5036106;28;20388;-76
2023/06/25 02:25:54;;;;;;;13.48;8.65;;;16.80;99.90;;;;;;5035824;28;20041;-76
2023/06/25 02:28:20;;;;;;;14.20;8.30;;;16.70;99.90;;;;;;5035939;28;20033;-76
2023/06/25 02:30:46;;;;;;;12.98;8.45;;;16.70;99.90;;;;;;5036092;28;20063;-76
2023/06/25 02:33:11;;;;;;;10.30;7.35;;;16.70;99.90;;;;;;5036163;28;20392;-76
2023/06/25 02:35:41;;;;;;;11.23;7.28;;;16.70;99.90;;;;;;5053671;28;20157;-75
2023/06/25 02:38:07;;;;;;;14.90;7.53;;;16.70;99.90;;;;;;5036224;28;20067;-76
2023/06/25 02:40:32;;;;;;;14.55;7.53;;;16.70;99.90;;;;;;5035856;28;20480;-76
2023/06/25 02:42:58;;;;;;;10.77;7.63;;;16.60;99.90;;;;;;5053461;28;20072;-76
2023/06/25 02:45:24;;;;;;;11.93;7.38;;;16.60;99.90;;;;;;5035784;28;20481;-75
2023/06/25 02:47:49;;;;;;;11.63;7.55;;;16.60;99.90;;;;;;5053698;28;20037;-76
2023/06/25 02:50:15;;;;;;;13.35;7.47;;;16.60;99.90;;;;;;5053649;28;20059;-75
2023/06/25 02:52:41;;;;;;;11.95;7.32;;;16.70;99.90;;;;;;5035681;28;20058;-76
2023/06/25 02:55:07;;;;;;;12.95;7.95;;;16.70;99.90;;;;;;5035609;28;20049;-76
2023/06/25 02:57:33;;;;;;;13.95;7.47;;;16.70;99.90;;;;;;5053073;28;20392;-76
2023/06/25 02:59:59;;;;;;;12.70;8.38;;;16.70;99.90;;;;;;5035681;28;20484;-76
2023/06/25 03:02:25;;;;;;;12.00;7.10;;;16.70;99.90;;;;;;5035226;28;20484;-75
2023/06/25 03:04:51;;;;;;;10.25;6.43;;;16.70;99.90;;;;;;5034836;28;20052;-75
2023/06/25 03:07:17;;;;;;;10.25;6.82;;;16.70;99.90;;;;;;5070266;28;20125;-76
2023/06/25 03:09:43;;;;;;;11.73;7.13;;;16.70;99.90;;;;;;5073242;28;20076;-75
2023/06/25 03:12:09;;;;;;;11.85;7.47;;;16.70;99.90;;;;;;5055307;28;20476;-76
2023/06/25 03:14:35;;;;;;;11.70;7.57;;;16.70;99.90;;;;;;5073386;28;20040;-76
2023/06/25 03:17:03;;;;;;;15.32;8.65;;;16.70;99.90;;;;;;5073401;28;20127;-75
2023/06/25 03:19:31;;;;;;;14.95;9.15;;;16.70;99.90;;;;;;5073077;28;20079;-76
2023/06/25 03:21:57;;;;;;;17.23;11.18;;;16.70;99.90;;;;;;5055313;28;20128;-76
2023/06/25 03:24:23;;;;;;;15.45;10.48;;;16.70;99.90;;;;;;5055272;28;20124;-76
2023/06/25 03:26:48;;;;;;;17.95;11.05;;;16.70;99.90;;;;;;5055372;28;20041;-75
2023/06/25 03:29:14;;;;;;;16.27;10.43;;;16.70;99.90;;;;;;5055008;28;20056;-75
2023/06/25 03:31:40;;;;;;;17.40;11.77;;;16.70;99.90;;;;;;5055327;28;20045;-75
2023/06/25 03:34:05;;;;;;;16.83;10.52;;;16.70;99.90;;;;;;5072766;28;20070;-75
2023/06/25 03:36:32;;;;;;;17.30;10.63;;;16.70;99.90;;;;;;5055114;28;20063;-75
2023/06/25 03:38:57;;;;;;;21.08;11.68;;;16.70;99.90;;;;;;5058898;28;20045;-75
2023/06/25 03:41:23;;;;;;;21.77;10.77;;;16.70;99.90;;;;;;5058920;28;20480;-75
2023/06/25 03:43:49;;;;;;;18.33;11.15;;;16.80;99.90;;;;;;5059068;28;20068;-75
2023/06/25 03:46:15;;;;;;;15.32;10.77;;;16.70;99.90;;;;;;5059060;28;20044;-75
2023/06/25 03:48:42;;;;;;;19.70;11.80;;;16.80;99.90;;;;;;5058977;28;20447;-75
2023/06/25 03:51:08;;;;;;;18.88;11.88;;;16.80;99.90;;;;;;5076692;28;20123;-75
2023/06/25 03:53:34;;;;;;;18.38;12.13;;;16.80;99.90;;;;;;5058653;28;20516;-75
2023/06/25 03:55:59;;;;;;;18.77;13.38;;;16.80;99.90;;;;;;5058898;28;20051;-75
2023/06/25 03:58:25;;;;;;;21.42;12.57;;;16.80;99.90;;;;;;5076441;28;20101;-75
2023/06/25 04:00:50;;;;;;;21.30;13.75;;;16.90;99.90;;;;;;5076402;28;20045;-75
2023/06/25 04:03:16;;;;;;;21.48;13.80;;;16.90;99.90;;;;;;5076672;28;20032;-75
2023/06/25 04:05:42;;;;;;;22.67;14.45;;;16.90;99.90;;;;;;5058654;28;20373;-75
2023/06/25 04:08:08;;;;;;;19.10;13.13;;;16.90;99.90;;;;;;5058582;28;20450;-75
2023/06/25 04:10:33;;;;;;;21.17;13.00;;;16.90;99.90;;;;;;5058589;28;20131;-75
2023/06/25 04:12:59;;;;;;;19.95;12.30;;;17.00;99.90;;;;;;5076419;28;20400;-75
2023/06/25 04:15:24;;;;;;;21.85;14.02;;;17.10;99.90;;;;;;5058263;28;20080;-75
2023/06/25 04:17:50;;;;;;;22.33;13.40;;;17.10;99.90;;;;;;5058443;28;20128;-75
2023/06/25 04:20:16;;;;;;;20.75;13.38;;;17.20;99.90;;;;;;5076256;28;20152;-75
2023/06/25 04:22:41;;;;;;;23.52;12.93;;;17.30;99.90;;;;;;5075884;28;20040;-75
2023/06/25 04:25:07;;;;;;;19.67;12.98;;;17.30;99.90;;;;;;5058037;28;20040;-75
2023/06/25 04:27:33;;;;;;;17.45;11.80;;;17.40;99.90;;;;;;5076168;28;20044;-75
2023/06/25 04:29:58;;;;;;;16.30;11.38;;;17.50;99.90;;;;;;5058002;28;20106;-75
2023/06/25 04:32:24;;;;;;;16.42;10.85;;;17.60;99.90;;;;;;5057925;28;20051;-75
2023/06/25 04:34:51;;;;;;;19.25;11.10;;;17.70;99.90;;;;;;5057709;28;20049;-75
2023/06/25 04:37:17;;;;;;;13.93;9.90;;;17.80;99.90;;;;;;5057684;28;20470;-75
2023/06/25 04:39:42;;;;;;;16.90;10.15;;;17.90;99.90;;;;;;5057772;28;20531;-75
2023/06/25 04:42:08;;;;;;;16.73;11.30;;;18.00;99.90;;;;;;5058160;28;20496;-75
2023/06/25 04:44:33;;;;;;;17.52;11.27;;;18.00;99.90;;;;;;5057937;28;20426;-75
2023/06/25 04:46:59;;;;;;;17.65;11.05;;;18.20;99.90;;;;;;5057799;28;20041;-75
2023/06/25 04:49:25;;;;;;;17.40;11.75;;;18.30;99.90;;;;;;5057448;28;20037;-75
2023/06/25 04:51:50;;;;;;;17.48;11.57;;;18.30;99.90;;;;;;5057743;28;20086;-75
2023/06/25 04:54:16;;;;;;;20.60;12.50;;;18.50;99.90;;;;;;5057606;28;20476;-76
2023/06/25 04:56:41;;;;;;;19.25;11.90;;;18.60;99.90;;;;;;5075652;28;20036;-76
2023/06/25 04:59:07;;;;;;;21.70;13.45;;;18.70;99.90;;;;;;5057382;28;20040;-76
2023/06/25 05:01:33;;;;;;;18.25;13.45;;;18.80;99.90;;;;;;5057702;28;20054;-76
2023/06/25 05:03:59;;;;;;;21.88;13.15;;;18.80;99.90;;;;;;5057368;28;20135;-76
2023/06/25 05:06:25;;;;;;;20.25;12.80;;;18.80;99.90;;;;;;5075441;28;20036;-76
2023/06/25 05:08:51;;;;;;;20.88;12.65;;;19.00;99.90;;;;;;5057398;28;20424;-76
2023/06/25 05:11:16;;;;;;;15.15;10.95;;;19.10;99.90;;;;;;5057514;28;20066;-76
2023/06/25 05:13:42;;;;;;;17.20;11.50;;;19.20;99.90;;;;;;5057299;28;20532;-76
2023/06/25 05:16:08;;;;;;;19.10;11.80;;;19.40;99.90;;;;;;5057387;28;20057;-76
2023/06/25 05:18:33;;;;;;;17.50;11.93;;;19.50;99.90;;;;;;5056875;28;20127;-76
2023/06/25 05:20:59;;;;;;;15.55;10.23;;;19.60;99.90;;;;;;5074727;28;20041;-76
2023/06/25 05:23:25;;;;;;;16.40;10.60;;;19.80;99.90;;;;;;5074882;28;20512;-76
2023/06/25 05:25:51;;;;;;;15.38;10.30;;;19.90;99.90;;;;;;5057208;28;20045;-76
2023/06/25 05:28:17;;;;;;;13.32;9.77;;;19.90;99.90;;;;;;5057142;28;20509;-76
2023/06/25 05:30:43;;;;;;;14.18;9.60;;;20.10;99.90;;;;;;5074940;28;20507;-76
2023/06/25 05:33:08;;;;;;;15.68;9.57;;;20.30;99.90;;;;;;5074962;28;20036;-76
2023/06/25 05:35:35;;;;;;;13.57;9.10;;;20.30;99.90;;;;;;5074419;28;20096;-76
2023/06/25 05:38:01;;;;;;;16.20;8.80;;;20.40;99.90;;;;;;5056546;28;20427;-76
2023/06/25 05:40:27;;;;;;;14.80;9.23;;;20.60;99.90;;;;;;5056723;28;20045;-76
2023/06/25 05:42:54;;;;;;;11.73;8.25;;;20.70;99.90;;;;;;5074443;28;20056;-76
2023/06/25 05:45:21;;;;;;;14.48;8.52;;;20.90;99.90;;;;;;5056645;28;20044;-76
2023/06/25 05:47:47;;;;;;;14.48;9.07;;;21.00;99.90;;;;;;5056501;28;20101;-76
2023/06/25 05:50:12;;;;;;;15.65;9.32;;;21.10;99.90;;;;;;5056379;28;20041;-76
2023/06/25 05:52:41;;;;;;;11.43;8.40;;;21.00;99.90;;;;;;5056438;28;20046;-75
2023/06/25 05:55:07;;;;;;;12.73;8.05;;;21.20;99.90;;;;;;5056615;28;20465;-76
2023/06/25 05:57:33;;;;;;;10.07;7.15;;;21.40;99.90;;;;;;5074173;28;20139;-76
2023/06/25 05:59:58;;;;;;;13.20;7.45;;;21.50;99.90;;;;;;5073916;28;20132;-76
2023/06/25 06:02:24;;;;;;;12.93;8.02;;;21.70;99.90;;;;;;5074166;28;20044;-75
2023/06/25 06:04:50;;;;;;;13.98;8.07;;;21.80;99.90;;;;;;5074273;28;20462;-75
2023/06/25 06:07:15;;;;;;;12.55;7.15;;;21.90;99.90;;;;;;5073558;28;20044;-75
2023/06/25 06:09:41;;;;;;;9.05;6.57;;;22.00;99.90;;;;;;5056109;28;20511;-75
2023/06/25 06:12:07;;;;;;;11.68;7.07;;;22.10;99.90;;;;;;5056136;28;20101;-75
2023/06/25 06:14:37;;;;;;;11.48;7.55;;;22.20;99.90;;;;;;5056100;28;20044;-75
2023/06/25 06:17:04;;;;;;;9.63;6.57;;;22.20;99.90;;;;;;5056465;28;20190;-75
2023/06/25 06:19:30;;;;;;;10.65;6.50;;;22.40;99.90;;;;;;5056122;28;20419;-75
2023/06/25 06:21:55;;;;;;;10.43;6.40;;;22.60;99.90;;;;;;5073726;28;20045;-74
2023/06/25 06:24:21;;;;;;;10.18;6.40;;;22.60;99.90;;;;;;5049223;28;20053;-74
2023/06/25 06:26:48;;;;;;;11.05;6.50;;;22.80;99.90;;;;;;5060713;28;20041;-74
2023/06/25 06:29:15;;;;;;;9.57;6.40;;;22.80;99.90;;;;;;5053549;28;20385;-73
2023/06/25 06:31:41;;;;;;;11.77;7.13;;;22.80;99.90;;;;;;5053428;28;20045;-74
2023/06/25 06:34:08;;;;;;;12.18;7.43;;;23.10;99.90;;;;;;5035758;28;20041;-73
2023/06/25 06:36:34;;;;;;;9.55;6.32;;;23.00;99.90;;;;;;5053530;28;20057;-73
2023/06/25 06:38:59;;;;;;;9.82;6.82;;;23.10;99.90;;;;;;5035554;28;20055;-74
2023/06/25 06:41:25;;;;;;;9.30;6.68;;;23.20;99.90;;;;;;5053449;28;20488;-74
2023/06/25 06:43:51;;;;;;;10.10;6.78;;;23.10;99.90;;;;;;5041599;28;20049;-74
2023/06/25 06:46:16;;;;;;;11.07;6.57;;;23.20;99.90;;;;;;5073326;28;20044;-73
2023/06/25 06:48:43;;;;;;;11.63;7.10;;;23.30;99.90;;;;;;5073447;28;20033;-74
2023/06/25 06:51:09;;;;;;;11.35;6.60;;;23.30;99.90;;;;;;5055455;28;20052;-74
2023/06/25 06:53:34;;;;;;;12.25;7.00;;;23.40;99.90;;;;;;5073367;28;20067;-73
2023/06/25 06:56:00;;;;;;;11.35;7.15;;;23.70;99.90;;;;;;5073288;28;20059;-74
2023/06/25 06:58:25;;;;;;;10.45;6.55;;;23.80;99.90;;;;;;5073241;28;20040;-74
2023/06/25 07:00:51;;;;;;;9.93;6.25;;;23.80;99.90;;;;;;5055184;28;20103;-73
2023/06/25 07:03:17;;;;;;;10.27;6.70;;;24.00;99.90;;;;;;5073183;28;20044;-73
2023/06/25 07:05:42;;;;;;;11.27;6.38;;;24.00;99.90;;;;;;5055188;28;20123;-73
2023/06/25 07:08:08;;;;;;;9.88;6.05;;;24.20;99.90;;;;;;5071863;28;20090;-74
2023/06/25 07:10:35;;;;;;;10.98;6.80;;;24.30;99.90;;;;;;5055135;28;20071;-73
2023/06/25 07:13:01;;;;;;;11.00;6.15;;;24.40;99.90;;;;;;5075663;28;20055;-74
2023/06/25 07:15:26;;;;;;;13.00;6.93;;;24.60;99.90;;;;;;5059349;28;20040;-74
2023/06/25 07:17:52;;;;;;;11.75;6.75;;;24.70;99.90;;;;;;5059124;28;20055;-74
2023/06/25 07:20:18;;;;;;;9.43;5.93;;;24.90;99.90;;;;;;5077146;28;20481;-74
2023/06/25 07:22:44;;;;;;;11.27;7.32;;;24.90;99.90;;;;;;5077391;28;20143;-74
2023/06/25 07:25:10;;;;;;;9.70;6.93;;;24.90;99.90;;;;;;5059341;28;20391;-74
2023/06/25 07:27:36;;;;;;;10.23;6.50;;;25.10;99.90;;;;;;5077194;28;20045;-74
2023/06/25 07:30:03;;;;;;;9.68;6.50;;;25.10;99.90;;;;;;5058772;28;20067;-74
2023/06/25 07:32:29;;;;;;;13.25;6.47;;;25.20;99.90;;;;;;5058947;28;20052;-74
2023/06/25 07:34:56;;;;;;;10.73;6.53;;;25.40;99.90;;;;;;5076708;28;20110;-74
2023/06/25 07:37:22;;;;;;;12.18;8.30;;;25.60;99.90;;;;;;5058952;28;20102;-73
2023/06/25 07:39:48;;;;;;;11.57;7.90;;;25.50;99.90;;;;;;5076836;28;20048;-74
2023/06/25 07:42:14;;;;;;;14.75;9.23;;;25.80;99.90;;;;;;5076525;28;20136;-76
2023/06/25 07:44:39;;;;;;;11.40;8.55;;;25.80;99.90;;;;;;5059080;28;20036;-74
2023/06/25 07:47:05;;;;;;;11.32;8.40;;;25.90;99.90;;;;;;5058805;28;20473;-75
2023/06/25 07:49:30;;;;;;;10.23;7.45;;;26.00;99.90;;;;;;5076921;28;20115;-74
2023/06/25 07:51:56;;;;;;;13.18;8.50;;;26.10;99.90;;;;;;5076624;28;20402;-74
2023/06/25 07:54:22;;;;;;;12.25;9.30;;;26.30;99.90;;;;;;5058638;28;20475;-74
2023/06/25 07:56:48;;;;;;;10.73;8.93;;;26.30;99.90;;;;;;5058820;28;20448;-75
2023/06/25 07:59:15;;;;;;;12.00;9.38;;;26.50;99.90;;;;;;5058546;28;20510;-75
2023/06/25 08:01:41;;;;;;;12.02;8.93;;;26.40;99.90;;;;;;5076478;28;20400;-75
2023/06/25 08:04:06;;;;;;;14.45;11.25;;;26.70;99.90;;;;;;5058658;28;20056;-75
2023/06/25 08:06:32;;;;;;;14.85;10.13;;;26.70;99.90;;;;;;5058605;28;20055;-75
2023/06/25 08:08:58;;;;;;;14.80;10.60;;;26.70;99.90;;;;;;5058611;28;20082;-75
2023/06/25 08:11:23;;;;;;;13.27;9.48;;;26.80;99.90;;;;;;5058606;28;20085;-75
2023/06/25 08:13:49;;;;;;;11.82;9.98;;;26.80;99.90;;;;;;5058359;28;20133;-75
2023/06/25 08:16:15;;;;;;;12.93;10.38;;;26.80;99.90;;;;;;5075039;28;20051;-75
2023/06/25 08:18:40;;;;;;;15.35;10.75;;;26.90;99.90;;;;;;5058235;28;20091;-75
2023/06/25 08:21:06;;;;;;;12.98;10.77;;;26.70;99.90;;;;;;5076452;28;20080;-74
2023/06/25 08:23:32;;;;;;;12.98;10.15;;;26.90;99.90;;;;;;5075762;28;20127;-75
2023/06/25 08:25:57;;;;;;;14.65;10.43;;;27.00;99.90;;;;;;5058145;28;20045;-75
2023/06/25 08:28:23;;;;;;;12.70;10.85;;;26.90;99.90;;;;;;5058294;28;20047;-74
2023/06/25 08:30:49;;;;;;;17.70;10.20;;;27.10;99.90;;;;;;5058109;28;20044;-76
2023/06/25 08:33:14;;;;;;;13.05;10.57;;;27.30;99.90;;;;;;5057980;28;20109;-78
2023/06/25 08:35:40;;;;;;;13.32;11.93;;;27.50;99.90;;;;;;5057850;28;20059;-75
2023/06/25 08:38:06;;;;;;;13.05;11.38;;;27.20;99.90;;;;;;5057896;28;20585;-75
2023/06/25 08:40:34;;;;;;;15.45;11.18;;;27.20;99.90;;;;;;5058023;28;20072;-75
2023/06/25 08:42:59;;;;;;;12.60;11.07;;;27.30;99.90;;;;;;5057908;28;20040;-75
2023/06/25 08:45:25;;;;;;;12.60;10.82;;;27.40;99.90;;;;;;5075988;28;20077;-74
2023/06/25 08:47:55;;;;;;;13.38;10.82;;;27.30;99.90;;;;;;5057855;28;20106;-74
2023/06/25 08:50:21;;;;;;;11.75;10.10;;;27.60;99.90;;;;;;5057712;28;20492;-74
2023/06/25 08:52:47;;;;;;;11.98;10.73;;;27.60;99.90;;;;;;5057662;28;20048;-74
2023/06/25 08:55:14;;;;;;;12.02;10.82;;;27.80;99.90;;;;;;5057580;28;20056;-74
2023/06/25 08:57:40;;;;;;;13.63;11.55;;;27.90;99.90;;;;;;5066064;28;20059;-75
2023/06/25 09:00:07;;;;;;;15.90;11.48;;;27.60;99.90;;;;;;5037451;28;20408;-74
2023/06/25 09:02:36;;;;;;;15.10;11.23;;;27.80;99.90;;;;;;5055532;28;20052;-74
2023/06/25 09:05:06;;;;;;;11.80;9.43;;;27.90;99.90;;;;;;5037322;28;20124;-75
2023/06/25 09:07:43;;;;;;;11.02;9.77;;;28.00;99.90;;;;;;5055444;28;20060;-75
2023/06/25 09:10:09;;;;;;;15.25;10.23;;;28.20;99.90;;;;;;5037310;28;20045;-75
2023/06/25 09:12:35;;;;;;;10.65;8.77;;;28.30;99.90;;;;;;5037554;28;20519;-75
2023/06/25 09:15:01;;;;;;;10.75;9.65;;;28.50;99.90;;;;;;5055147;28;20037;-74
2023/06/25 09:17:27;;;;;;;10.35;9.00;;;28.40;99.90;;;;;;5037049;28;20416;-74
2023/06/25 09:19:52;;;;;;;9.80;8.35;;;28.40;99.90;;;;;;5036955;28;20045;-75
2023/06/25 09:22:18;;;;;;;11.48;8.88;;;28.60;99.90;;;;;;5037300;28;20128;-74
2023/06/25 09:24:47;;;;;;;12.45;8.85;;;28.60;99.90;;;;;;5054805;28;20124;-74
2023/06/25 09:27:12;;;;;;;13.32;8.50;;;28.70;99.90;;;;;;5037221;28;20084;-75
2023/06/25 09:29:39;;;;;;;11.18;7.97;;;28.90;99.90;;;;;;5036983;28;20144;-76
2023/06/25 09:32:09;;;;;;;9.85;8.77;;;29.00;99.90;;;;;;5036831;28;20071;-76
2023/06/25 09:34:36;;;;;;;12.45;7.72;;;29.00;99.90;;;;;;5035865;28;20516;-76
2023/06/25 09:37:03;;;;;;;9.18;7.40;;;29.20;99.90;;;;;;5054607;28;20511;-76
2023/06/25 09:39:29;;;;;;;11.52;7.78;;;29.40;99.90;;;;;;5036721;28;20055;-75
2023/06/25 09:41:56;;;;;;;9.90;7.80;;;29.40;99.90;;;;;;5036977;28;20143;-75
2023/06/25 09:44:24;;;;;;;10.05;7.45;;;29.50;99.90;;;;;;5054742;28;20049;-76
2023/06/25 09:46:53;;;;;;;9.77;8.02;;;29.60;99.90;;;;;;5036726;28;20503;-74
2023/06/25 09:49:20;;;;;;;9.63;7.10;;;29.60;99.90;;;;;;5054496;28;20124;-77
2023/06/25 09:51:59;;;;;;;8.30;7.10;;;29.70;99.90;;;;;;5036415;28;20490;-76
2023/06/25 09:54:25;;;;;;;10.65;7.68;;;29.50;99.90;;;;;;5054260;28;20386;-77
2023/06/25 09:56:53;;;;;;;9.95;7.57;;;29.80;99.90;;;;;;5054276;28;20045;-75
2023/06/25 09:59:20;;;;;;;8.70;6.88;;;29.50;99.90;;;;;;5054199;28;20036;-78
2023/06/25 10:01:46;;;;;;;8.40;7.15;;;29.70;99.90;;;;;;5036262;28;20504;-77
2023/06/25 10:04:12;;;;;;;9.70;6.88;;;30.10;99.90;;;;;;5036514;28;20045;-77
2023/06/25 10:06:38;;;;;;;9.02;7.25;;;30.30;99.90;;;;;;5036188;28;20506;-76
2023/06/25 10:09:06;;;;;;;8.90;6.95;;;30.30;99.90;;;;;;5026140;23;20138;-75
2023/06/25 10:11:32;;;;;;;8.60;6.60;;;30.30;99.90;;;;;;5019405;28;20052;-76
2023/06/25 10:14:02;;;;;;;9.55;7.40;;;30.30;99.90;;;;;;5019559;28;20078;-74
2023/06/25 10:16:34;;;;;;;13.27;7.75;;;30.30;99.90;;;;;;5019326;28;20173;-78
2023/06/25 10:19:00;;;;;;;9.10;7.65;;;30.50;99.90;;;;;;4953055;28;20457;-79
2023/06/25 10:21:26;;;;;;;9.52;7.30;;;30.40;99.90;;;;;;5019602;28;20039;-76
2023/06/25 10:24:02;;;;;;;8.52;6.82;;;30.40;99.90;;;;;;5019321;28;20502;-76
2023/06/25 10:26:29;;;;;;;8.90;6.30;;;30.50;99.90;;;;;;5019095;28;20066;-77
2023/06/25 10:28:58;;;;;;;9.35;6.93;;;30.50;99.90;;;;;;5019426;28;20376;-76
2023/06/25 10:31:24;;;;;;;9.15;6.95;;;30.50;99.40;;;;;;4952918;28;20047;-77
2023/06/25 10:33:50;;;;;;;7.72;6.25;;;30.50;98.50;;;;;;5019203;28;20058;-77
2023/06/25 10:36:24;;;;;;;9.18;6.55;;;30.50;99.90;;;;;;4953115;28;20153;-77
2023/06/25 10:38:49;;;;;;;8.80;6.20;;;30.60;99.30;;;;;;5018977;28;20047;-77
2023/06/25 10:41:15;;;;;;;8.02;6.55;;;30.70;99.60;;;;;;5019273;28;20051;-76
2023/06/25 10:43:42;;;;;;;7.65;6.13;;;30.40;98.20;;;;;;5018704;28;20066;-77
2023/06/25 10:46:08;;;;;;;9.63;6.50;;;30.70;99.30;;;;;;5018724;28;20062;-77
2023/06/25 10:48:34;;;;;;;9.95;6.72;;;31.00;99.90;;;;;;5019086;28;20047;-77
2023/06/25 10:51:00;;;;;;;11.02;6.60;;;31.00;99.10;;;;;;4952858;28;20047;-77
2023/06/25 10:53:25;;;;;;;9.52;7.20;;;31.00;99.30;;;;;;5018938;28;20051;-77
2023/06/25 10:55:53;;;;;;;8.35;7.15;;;30.90;98.80;;;;;;5018695;28;20122;-76
2023/06/25 10:58:23;;;;;;;8.00;6.03;;;30.40;97.30;;;;;;4952449;28;20058;-76
2023/06/25 11:00:54;;;;;;;8.02;5.85;;;30.70;98.30;;;;;;5019038;28;20055;-76
2023/06/25 11:03:21;;;;;;;7.15;6.32;;;31.00;99.40;;;;;;5018716;28;20072;-77
2023/06/25 11:05:46;;;;;;;8.68;6.50;;;31.00;98.30;;;;;;5019083;28;20090;-78
2023/06/25 11:08:13;;;;;;;8.30;7.18;;;31.30;99.20;;;;;;4952664;28;20075;-77
2023/06/25 11:10:40;;;;;;;9.52;7.70;;;31.20;97.80;;;;;;5019130;28;20117;-77
2023/06/25 11:13:13;;;;;;;7.78;6.28;;;31.40;98.00;;;;;;5031494;28;20051;-77
2023/06/25 11:15:41;;;;;;;9.85;7.22;;;31.10;97.30;;;;;;5038219;28;20055;-76
2023/06/25 11:18:08;;;;;;;9.68;7.07;;;31.40;98.40;;;;;;4971801;28;20045;-76
2023/06/25 11:20:34;;;;;;;9.25;6.47;;;31.40;97.70;;;;;;4971519;28;20051;-77
2023/06/25 11:23:01;;;;;;;13.60;7.45;;;31.70;97.60;;;;;;5038245;28;20050;-76
2023/06/25 11:25:28;;;;;;;7.38;6.57;;;31.60;97.00;;;;;;5038081;28;20490;-76
2023/06/25 11:28:14;;;;;;;8.88;6.90;;;31.80;97.60;;;;;;4971742;28;20108;-76
2023/06/25 11:30:40;;;;;;;8.18;7.07;;;31.60;96.50;;;;;;4971990;28;20076;-76
2023/06/25 11:33:15;;;;;;;9.00;7.65;;;31.80;98.00;;;;;;4972172;28;20043;-76
2023/06/25 11:35:42;;;;;;;9.63;6.90;;;31.60;96.70;;;;;;5038359;28;20043;-76
2023/06/25 11:38:08;;;;;;;7.80;6.75;;;31.60;96.80;;;;;;4971163;28;20526;-76
2023/06/25 11:40:36;;;;;;;8.20;6.93;;;31.70;97.10;;;;;;5038683;28;20081;-76
2023/06/25 11:43:02;;;;;;;9.68;6.82;;;31.90;96.80;;;;;;4972004;28;20054;-76
2023/06/25 11:45:40;;;;;;;9.48;7.85;;;31.90;97.20;;;;;;4971555;28;20054;-77
2023/06/25 11:48:12;;;;;;;7.72;6.88;;;31.50;95.60;;;;;;5038365;28;20055;-77
2023/06/25 11:50:37;;;;;;;9.82;7.72;;;31.70;97.20;;;;;;4971327;28;20108;-76
2023/06/25 11:53:03;;;;;;;9.38;7.70;;;31.30;96.10;;;;;;4971448;28;20486;-76
2023/06/25 11:55:28;;;;;;;11.82;7.60;;;31.50;96.40;;;;;;5038021;28;20043;-77
2023/06/25 11:57:54;;;;;;;10.55;7.75;;;31.80;96.00;;;;;;4971656;28;20047;-78
2023/06/25 12:00:20;;;;;;;9.05;7.50;;;32.00;97.30;;;;;;4974422;28;20477;-78
2023/06/25 12:02:45;;;;;;;11.25;7.60;;;32.10;96.80;;;;;;4974475;28;20172;-77
2023/06/25 12:05:11;;;;;;;8.88;7.70;;;32.10;95.00;;;;;;5041577;28;20492;-78
2023/06/25 12:07:37;;;;;;;9.32;8.25;;;31.70;94.60;;;;;;5041253;28;20082;-78
2023/06/25 12:10:03;;;;;;;9.48;7.22;;;31.70;95.60;;;;;;4974252;28;20051;-77
2023/06/25 12:12:29;;;;;;;11.77;8.65;;;31.70;94.80;;;;;;5041404;28;20421;-78
2023/06/25 12:14:55;;;;;;;9.30;8.38;;;32.10;98.00;;;;;;4974600;28;20051;-78
2023/06/25 12:17:21;;;;;;;15.57;11.63;;;31.80;97.90;;;;;;5041673;28;20043;-78
2023/06/25 12:19:46;;;;;;;14.68;12.52;;;31.60;99.10;;;;;;4974011;28;20055;-78
2023/06/25 12:22:12;;;;;;;14.90;11.50;;;31.10;99.90;;;;;;4974563;28;20035;-78
2023/06/25 12:24:38;;;;;;;13.55;11.48;;;31.20;99.90;;;;;;5041244;28;20054;-77
2023/06/25 12:27:04;;;;;;;14.40;10.82;;;31.20;99.90;;;;;;5041280;28;20043;-78
2023/06/25 12:29:29;;;;;;;12.00;10.75;;;31.50;99.90;;;;;;5041301;28;20051;-78
2023/06/25 12:31:55;;;;;;;10.15;9.10;;;30.80;99.90;;;;;;5041287;28;20088;-78
2023/06/25 12:34:21;;;;;;;11.82;10.63;;;31.20;99.90;;;;;;5041076;28;20051;-78